createdAt,value
2022-08-30T00:01:32.506Z,2.10
2022-08-30T00:04:01.080Z,2.10
2022-08-30T00:06:30.172Z,2.08
2022-08-30T00:08:57.179Z,2.22
2022-08-30T00:11:28.200Z,1.95
2022-08-30T00:13:56.778Z,2.33
2022-08-30T00:16:26.387Z,1.45
2022-08-30T00:18:53.843Z,1.63
2022-08-30T00:21:23.817Z,1.50
2022-08-30T00:23:50.610Z,1.67
2022-08-30T00:26:17.250Z,2.00
2022-08-30T00:28:43.951Z,2.45
2022-08-30T00:31:10.784Z,2.55
2022-08-30T00:33:41.787Z,3.60
2022-08-30T00:36:08.441Z,3.28
2022-08-30T00:38:35.064Z,3.35
2022-08-30T00:41:01.815Z,3.00
2022-08-30T00:43:34.085Z,3.10
2022-08-30T00:46:07.693Z,2.50
2022-08-30T00:48:42.286Z,2.30
2022-08-30T00:51:13.178Z,2.85
2022-08-30T00:56:14.523Z,2.13
2022-08-30T00:58:48.693Z,1.83
2022-08-30T01:01:16.125Z,2.70
2022-08-30T01:03:44.527Z,2.80
2022-08-30T01:06:15.555Z,2.10
2022-08-30T01:08:43.974Z,1.90
2022-08-30T01:11:14.867Z,1.85
2022-08-30T01:16:10.544Z,1.98
2022-08-30T01:18:39.655Z,2.53
2022-08-30T01:21:34.418Z,2.40
2022-08-30T01:24:02.673Z,2.10
2022-08-30T01:26:31.376Z,1.98
2022-08-30T01:29:05.993Z,1.73
2022-08-30T01:31:36.961Z,1.55
2022-08-30T01:34:07.632Z,1.60
2022-08-30T01:36:44.602Z,1.50
2022-08-30T01:39:16.145Z,1.83
2022-08-30T01:41:43.517Z,1.60
2022-08-30T01:44:13.612Z,1.60
2022-08-30T01:46:47.437Z,1.83
2022-08-30T01:49:18.961Z,1.80
2022-08-30T01:52:01.071Z,1.42
2022-08-30T01:54:36.907Z,2.35
2022-08-30T01:57:17.675Z,3.10
2022-08-30T01:59:47.583Z,3.72
2022-08-30T02:02:20.643Z,3.50
2022-08-30T02:04:47.426Z,3.55
2022-08-30T02:07:14.320Z,3.00
2022-08-30T02:09:44.632Z,3.38
2022-08-30T02:12:14.230Z,3.70
2022-08-30T02:14:40.840Z,3.03
2022-08-30T02:17:10.639Z,3.47
2022-08-30T02:19:38.068Z,3.47
2022-08-30T02:22:06.505Z,3.60
2022-08-30T02:24:33.501Z,2.85
2022-08-30T02:27:00.305Z,2.17
2022-08-30T02:29:27.368Z,3.28
2022-08-30T02:31:54.032Z,3.75
2022-08-30T02:34:20.808Z,4.30
2022-08-30T02:36:47.569Z,3.85
2022-08-30T02:39:15.349Z,3.75
2022-08-30T02:41:42.751Z,4.07
2022-08-30T02:44:10.753Z,3.90
2022-08-30T02:46:38.129Z,3.80
2022-08-30T02:51:52.811Z,3.70
2022-08-30T02:54:22.488Z,3.90
2022-08-30T02:56:50.424Z,3.72
2022-08-30T02:59:18.551Z,3.90
2022-08-30T03:01:45.505Z,3.72
2022-08-30T03:04:12.218Z,3.80
2022-08-30T03:06:38.882Z,3.50
2022-08-30T03:09:05.614Z,3.08
2022-08-30T03:11:32.686Z,3.13
2022-08-30T03:13:59.523Z,3.00
2022-08-30T03:16:26.482Z,2.85
2022-08-30T03:18:53.169Z,2.78
2022-08-30T03:21:19.992Z,3.28
2022-08-30T03:23:46.675Z,3.47
2022-08-30T03:26:14.934Z,2.67
2022-08-30T03:28:43.478Z,2.40
2022-08-30T03:31:11.484Z,2.30
2022-08-30T03:33:43.254Z,2.28
2022-08-30T03:36:12.042Z,1.75
2022-08-30T03:38:39.886Z,1.80
2022-08-30T03:41:07.500Z,1.80
2022-08-30T03:43:35.798Z,1.60
2022-08-30T03:46:03.642Z,1.48
2022-08-30T03:48:30.633Z,1.95
2022-08-30T03:50:58.055Z,1.90
2022-08-30T03:53:27.056Z,2.83
2022-08-30T03:55:55.820Z,2.17
2022-08-30T03:58:24.610Z,2.00
2022-08-30T04:00:51.588Z,2.30
2022-08-30T04:03:18.828Z,1.90
2022-08-30T04:05:45.503Z,1.70
2022-08-30T04:08:12.128Z,1.90
2022-08-30T04:10:38.784Z,2.08
2022-08-30T04:13:05.672Z,2.78
2022-08-30T04:15:32.343Z,3.65
2022-08-30T04:17:58.969Z,3.40
2022-08-30T04:20:25.598Z,3.13
2022-08-30T04:22:52.196Z,3.10
2022-08-30T04:25:19.418Z,2.80
2022-08-30T04:27:46.460Z,2.15
2022-08-30T04:30:16.017Z,2.40
2022-08-30T04:32:44.092Z,1.92
2022-08-30T04:35:12.902Z,1.80
2022-08-30T04:37:40.420Z,1.67
2022-08-30T04:40:08.762Z,1.52
2022-08-30T04:42:36.571Z,1.42
2022-08-30T04:45:10.566Z,1.38
2022-08-30T04:47:39.064Z,1.73
2022-08-30T04:50:09.746Z,1.80
2022-08-30T04:52:36.459Z,1.63
2022-08-30T04:55:05.958Z,1.23
2022-08-30T04:57:33.142Z,1.60
2022-08-30T04:59:59.845Z,1.60
2022-08-30T05:02:27.039Z,1.85
2022-08-30T05:05:14.267Z,1.30
2022-08-30T05:07:41.269Z,1.58
2022-08-30T05:10:11.306Z,1.48
2022-08-30T05:12:39.179Z,1.60
2022-08-30T05:15:06.647Z,1.40
2022-08-30T05:17:33.907Z,1.70
2022-08-30T05:20:04.951Z,1.70
2022-08-30T05:24:59.657Z,1.50
2022-08-30T05:27:26.326Z,1.50
2022-08-30T05:29:52.950Z,1.40
2022-08-30T05:32:19.496Z,1.40
2022-08-30T05:34:47.489Z,1.65
2022-08-30T05:37:18.074Z,1.52
2022-08-30T05:39:51.391Z,1.38
2022-08-30T05:42:18.896Z,1.40
2022-08-30T05:44:45.684Z,1.42
2022-08-30T05:47:12.287Z,1.45
2022-08-30T05:49:38.959Z,1.42
2022-08-30T05:52:06.088Z,1.45
2022-08-30T05:54:32.681Z,2.30
2022-08-30T05:56:59.985Z,2.58
2022-08-30T05:59:26.674Z,2.05
2022-08-30T06:01:58.374Z,1.55
2022-08-30T06:04:25.726Z,1.60
2022-08-30T06:06:52.791Z,1.52
2022-08-30T06:09:19.702Z,1.90
2022-08-30T06:11:47.793Z,1.75
2022-08-30T06:14:15.197Z,2.08
2022-08-30T06:16:45.628Z,1.70
2022-08-30T06:19:13.518Z,1.80
2022-08-30T06:21:41.970Z,1.70
2022-08-30T06:24:11.279Z,2.05
2022-08-30T06:26:42.762Z,1.95
2022-08-30T06:29:13.411Z,1.80
2022-08-30T06:31:40.307Z,2.20
2022-08-30T06:34:07.519Z,3.75
2022-08-30T06:36:34.261Z,3.30
2022-08-30T06:39:01.143Z,2.80
2022-08-30T06:41:32.489Z,2.20
2022-08-30T06:44:02.571Z,1.90
2022-08-30T06:46:35.300Z,2.40
2022-08-30T06:49:03.913Z,2.42
2022-08-30T06:51:35.855Z,2.50
2022-08-30T06:54:05.610Z,2.70
2022-08-30T06:56:55.243Z,2.25
2022-08-30T06:59:26.874Z,2.42
2022-08-30T07:01:54.088Z,2.80
2022-08-30T07:04:20.821Z,2.78
2022-08-30T07:06:47.421Z,3.22
2022-08-30T07:09:14.127Z,2.50
2022-08-30T07:11:41.628Z,2.78
2022-08-30T07:14:08.808Z,2.83
2022-08-30T07:16:36.059Z,2.40
2022-08-30T07:19:06.081Z,3.50
2022-08-30T07:21:37.624Z,3.07
2022-08-30T07:24:06.943Z,3.30
2022-08-30T07:26:43.353Z,3.13
2022-08-30T07:29:10.431Z,2.80
2022-08-30T07:31:37.587Z,3.75
2022-08-30T07:34:06.896Z,2.63
2022-08-30T07:36:34.766Z,2.20
2022-08-30T07:39:01.861Z,2.70
2022-08-30T07:41:32.417Z,2.65
2022-08-30T07:43:59.199Z,2.88
2022-08-30T07:46:27.447Z,2.75
2022-08-30T07:48:57.833Z,2.80
2022-08-30T07:51:27.107Z,3.22
2022-08-30T07:53:55.605Z,3.15
2022-08-30T07:56:25.096Z,3.10
2022-08-30T07:58:53.220Z,2.75
2022-08-30T08:01:21.892Z,2.97
2022-08-30T08:03:50.469Z,3.15
2022-08-30T08:06:20.776Z,2.90
2022-08-30T08:08:47.898Z,3.40
2022-08-30T08:11:28.340Z,4.40
2022-08-30T08:13:57.411Z,3.28
2022-08-30T08:16:26.991Z,3.35
2022-08-30T08:18:55.382Z,3.13
2022-08-30T08:21:25.159Z,3.00
2022-08-30T08:23:52.218Z,2.40
2022-08-30T08:26:20.477Z,2.63
2022-08-30T08:28:49.001Z,2.47
2022-08-30T08:31:23.619Z,2.80
2022-08-30T08:33:58.688Z,3.30
2022-08-30T08:36:26.247Z,3.25
2022-08-30T08:38:53.827Z,2.95
2022-08-30T08:42:06.230Z,2.63
2022-08-30T08:44:42.510Z,2.88
2022-08-30T08:47:23.641Z,3.20
2022-08-30T08:49:59.648Z,2.60
2022-08-30T08:53:05.141Z,2.90
2022-08-30T08:55:53.316Z,3.28
2022-08-30T08:58:57.887Z,2.80
2022-08-30T09:01:39.152Z,2.95
2022-08-30T09:04:16.494Z,3.05
2022-08-30T09:06:55.614Z,2.90
2022-08-30T09:09:30.030Z,3.50
2022-08-30T09:11:57.004Z,4.53
2022-08-30T09:14:30.043Z,3.03
2022-08-30T09:17:18.019Z,3.60
2022-08-30T09:19:52.101Z,2.60
2022-08-30T09:22:38.022Z,3.35
2022-08-30T09:25:25.952Z,2.70
2022-08-30T09:27:56.037Z,2.92
2022-08-30T09:30:29.647Z,2.72
2022-08-30T09:33:04.342Z,3.03
2022-08-30T09:35:50.061Z,2.53
2022-08-30T09:38:35.894Z,3.65
2022-08-30T09:41:47.203Z,3.20
2022-08-30T09:46:51.013Z,2.70
2022-08-30T09:49:39.297Z,2.60
2022-08-30T09:52:15.727Z,3.70
2022-08-30T09:55:23.254Z,3.08
2022-08-30T09:58:35.316Z,3.70
2022-08-30T10:01:16.754Z,3.10
2022-08-30T10:04:06.471Z,3.22
2022-08-30T10:06:56.480Z,2.90
2022-08-30T10:10:12.268Z,2.60
2022-08-30T10:13:30.647Z,2.58
2022-08-30T10:16:43.934Z,2.97
2022-08-30T10:20:01.120Z,2.92
2022-08-30T10:22:40.363Z,2.78
2022-08-30T10:25:21.289Z,2.55
2022-08-30T10:27:54.051Z,2.25
2022-08-30T10:30:24.465Z,2.53
2022-08-30T10:33:18.482Z,1.80
2022-08-30T10:35:58.112Z,2.85
2022-08-30T10:38:32.794Z,2.67
2022-08-30T10:41:33.802Z,2.30
2022-08-30T10:44:31.776Z,2.40
2022-08-30T10:47:36.056Z,2.30
2022-08-30T10:50:29.681Z,2.30
2022-08-30T10:53:30.796Z,2.35
2022-08-30T10:56:24.344Z,2.03
2022-08-30T10:58:58.509Z,1.70
2022-08-30T11:01:48.273Z,2.13
2022-08-30T11:04:23.868Z,2.70
2022-08-30T11:07:19.304Z,2.28
2022-08-30T11:10:49.542Z,2.22
2022-08-30T11:13:34.129Z,2.40
2022-08-30T11:16:15.864Z,2.75
2022-08-30T11:18:51.185Z,2.08
2022-08-30T11:21:42.247Z,1.90
2022-08-30T11:24:25.258Z,2.42
2022-08-30T11:27:01.191Z,2.10
2022-08-30T11:29:41.170Z,2.20
2022-08-30T11:32:17.202Z,2.05
2022-08-30T11:34:47.104Z,1.90
2022-08-30T11:37:13.889Z,2.30
2022-08-30T11:39:55.124Z,2.15
2022-08-30T11:42:44.169Z,2.20
2022-08-30T11:45:25.263Z,2.03
2022-08-30T11:48:31.203Z,2.72
2022-08-30T11:51:20.364Z,2.17
2022-08-30T11:54:14.197Z,2.30
2022-08-30T11:57:46.564Z,2.00
2022-08-30T12:00:51.338Z,2.13
2022-08-30T12:03:20.464Z,2.30
2022-08-30T12:06:08.769Z,2.25
2022-08-30T12:08:47.404Z,2.58
2022-08-30T12:11:13.994Z,2.55
2022-08-30T12:13:43.475Z,2.28
2022-08-30T12:16:22.019Z,2.20
2022-08-30T12:19:19.032Z,2.60
2022-08-30T12:22:01.591Z,2.35
2022-08-30T12:24:43.834Z,2.47
2022-08-30T12:27:32.979Z,2.38
2022-08-30T12:30:06.328Z,2.20
2022-08-30T12:32:54.093Z,2.50
2022-08-30T12:35:28.179Z,2.50
2022-08-30T12:38:19.048Z,2.30
2022-08-30T12:41:22.678Z,2.20
2022-08-30T12:43:52.418Z,1.90
2022-08-30T12:46:22.743Z,1.88
2022-08-30T12:48:53.219Z,2.40
2022-08-30T12:54:32.537Z,2.30
2022-08-30T12:58:09.761Z,2.30
2022-08-30T13:00:46.634Z,2.70
2022-08-30T13:03:37.184Z,2.30
2022-08-30T13:06:10.147Z,2.83
2022-08-30T13:08:51.626Z,1.90
2022-08-30T13:11:21.673Z,1.80
2022-08-30T13:13:53.133Z,2.00
2022-08-30T13:16:22.849Z,2.22
2022-08-30T13:19:20.161Z,2.10
2022-08-30T13:21:58.040Z,2.60
2022-08-30T13:24:26.763Z,1.85
2022-08-30T13:26:58.440Z,2.20
2022-08-30T13:29:28.871Z,1.88
2022-08-30T13:31:56.921Z,2.00
2022-08-30T13:34:24.082Z,2.20
2022-08-30T13:36:58.004Z,1.92
2022-08-30T13:39:27.092Z,1.98
2022-08-30T13:42:31.738Z,2.50
2022-08-30T13:45:01.795Z,2.28
2022-08-30T13:47:32.955Z,1.70
2022-08-30T13:50:14.745Z,1.90
2022-08-30T13:52:45.012Z,1.95
2022-08-30T13:55:30.454Z,1.52
2022-08-30T13:58:20.478Z,1.40
2022-08-30T14:00:47.981Z,2.05
2022-08-30T14:03:15.899Z,1.60
2022-08-30T14:06:04.912Z,2.10
2022-08-30T14:08:48.729Z,1.83
2022-08-30T14:11:22.356Z,1.73
2022-08-30T14:16:56.865Z,1.90
2022-08-30T14:19:23.997Z,2.40
2022-08-30T14:21:53.992Z,2.03
2022-08-30T14:24:21.642Z,1.90
2022-08-30T14:26:51.661Z,2.03
2022-08-30T14:29:30.236Z,1.88
2022-08-30T14:32:00.892Z,2.30
2022-08-30T14:34:31.010Z,1.70
2022-08-30T14:36:59.518Z,2.05
2022-08-30T14:39:35.622Z,1.90
2022-08-30T14:42:10.813Z,2.13
2022-08-30T14:44:56.140Z,2.20
2022-08-30T14:47:29.486Z,2.53
2022-08-30T14:50:00.789Z,2.50
2022-08-30T14:52:32.314Z,2.38
2022-08-30T14:55:09.275Z,2.92
2022-08-30T14:57:38.398Z,2.10
2022-08-30T15:00:09.746Z,2.08
2022-08-30T15:02:36.678Z,2.50
2022-08-30T15:05:04.305Z,2.30
2022-08-30T15:07:36.819Z,2.05
2022-08-30T15:10:08.627Z,2.13
2022-08-30T15:12:35.513Z,1.97
2022-08-30T15:15:08.971Z,1.80
2022-08-30T15:17:35.790Z,2.20
2022-08-30T15:20:08.580Z,2.45
2022-08-30T15:22:41.215Z,2.53
2022-08-30T15:25:08.735Z,2.30
2022-08-30T15:27:36.228Z,2.13
2022-08-30T15:30:05.783Z,2.22
2022-08-30T15:32:33.185Z,1.92
2022-08-30T15:35:00.270Z,1.98
2022-08-30T15:37:27.365Z,2.30
2022-08-30T15:39:54.307Z,1.80
2022-08-30T15:42:21.032Z,2.22
2022-08-30T15:44:53.180Z,1.90
2022-08-30T15:47:22.575Z,1.73
2022-08-30T15:49:58.946Z,1.90
2022-08-30T15:52:28.887Z,2.30
2022-08-30T15:54:58.746Z,1.90
2022-08-30T15:57:26.946Z,2.33
2022-08-30T15:59:56.564Z,1.70
2022-08-30T16:02:27.551Z,1.50
2022-08-30T16:04:55.102Z,1.85
2022-08-30T16:07:21.861Z,1.98
2022-08-30T16:09:48.529Z,1.70
2022-08-30T16:12:23.409Z,2.10
2022-08-30T16:15:01.763Z,1.70
2022-08-30T16:17:29.723Z,1.77
2022-08-30T16:19:58.855Z,1.65
2022-08-30T16:22:31.981Z,1.60
2022-08-30T16:25:00.616Z,1.90
2022-08-30T16:27:28.528Z,2.20
2022-08-30T16:29:55.341Z,2.17
2022-08-30T16:32:22.366Z,2.10
2022-08-30T16:34:50.578Z,2.28
2022-08-30T16:37:17.451Z,1.80
2022-08-30T16:39:46.689Z,1.83
2022-08-30T16:42:20.822Z,1.60
2022-08-30T16:44:57.774Z,1.52
2022-08-30T16:47:31.299Z,1.42
2022-08-30T16:50:01.111Z,1.30
2022-08-30T16:52:28.095Z,1.65
2022-08-30T16:54:54.852Z,1.67
2022-08-30T16:57:23.852Z,2.00
2022-08-30T16:59:50.977Z,2.30
2022-08-30T17:02:19.576Z,2.22
2022-08-30T17:04:49.785Z,2.40
2022-08-30T17:07:22.387Z,1.90
2022-08-30T17:09:52.390Z,2.13
2022-08-30T17:14:52.527Z,2.45
2022-08-30T17:17:22.093Z,2.47
2022-08-30T17:19:53.221Z,2.40
2022-08-30T17:22:19.912Z,2.70
2022-08-30T17:24:48.809Z,2.13
2022-08-30T17:27:20.339Z,1.98
2022-08-30T17:29:48.122Z,2.30
2022-08-30T17:32:15.157Z,2.05
2022-08-30T17:34:42.149Z,2.47
2022-08-30T17:37:09.306Z,2.20
2022-08-30T17:39:37.271Z,2.10
2022-08-30T17:42:04.668Z,2.67
2022-08-30T17:44:36.217Z,2.45
2022-08-30T17:47:03.044Z,1.85
2022-08-30T17:49:30.951Z,2.22
2022-08-30T17:51:58.392Z,2.08
2022-08-30T17:54:27.504Z,2.20
2022-08-30T17:56:55.775Z,1.98
2022-08-30T17:59:25.126Z,2.20
2022-08-30T18:02:13.700Z,1.90
2022-08-30T18:04:42.064Z,2.42
2022-08-30T18:09:57.893Z,2.30
2022-08-30T18:12:27.029Z,2.20
2022-08-30T18:14:56.312Z,2.22
2022-08-30T18:17:23.223Z,1.83
2022-08-30T18:19:50.376Z,1.90
2022-08-30T18:22:17.617Z,2.30
2022-08-30T18:24:46.424Z,2.30
2022-08-30T18:27:13.510Z,1.90
2022-08-30T18:29:40.554Z,2.47
2022-08-30T18:32:09.048Z,2.40
2022-08-30T18:34:36.230Z,2.28
2022-08-30T18:37:02.939Z,1.98
2022-08-30T18:39:34.212Z,1.88
2022-08-30T18:42:02.146Z,1.92
2022-08-30T18:44:33.230Z,1.90
2022-08-30T18:47:03.847Z,2.10
2022-08-30T18:49:35.728Z,2.10
2022-08-30T18:52:09.892Z,2.35
2022-08-30T18:54:48.474Z,1.90
2022-08-30T18:57:19.434Z,2.38
2022-08-30T18:59:46.291Z,2.17
2022-08-30T19:02:16.078Z,2.35
2022-08-30T19:04:45.716Z,2.08
2022-08-30T19:07:14.924Z,2.33
2022-08-30T19:09:43.132Z,1.90
2022-08-30T19:12:11.513Z,2.20
2022-08-30T19:14:39.456Z,2.50
2022-08-30T19:17:07.709Z,2.15
2022-08-30T19:19:38.674Z,1.60
2022-08-30T19:24:42.075Z,2.33
2022-08-30T19:27:10.190Z,2.15
2022-08-30T19:29:36.926Z,2.20
2022-08-30T19:32:04.182Z,1.95
2022-08-30T19:34:30.881Z,2.10
2022-08-30T19:36:57.983Z,1.90
2022-08-30T19:39:24.687Z,2.17
2022-08-30T19:41:51.652Z,2.20
2022-08-30T19:44:19.434Z,2.00
2022-08-30T19:46:46.121Z,1.85
2022-08-30T19:49:12.980Z,2.50
2022-08-30T19:51:45.988Z,2.50
2022-08-30T19:54:14.451Z,1.80
2022-08-30T19:56:41.141Z,2.00
2022-08-30T19:59:07.881Z,1.80
2022-08-30T20:01:34.748Z,2.30
2022-08-30T20:04:02.511Z,1.73
2022-08-30T20:06:31.002Z,1.60
2022-08-30T20:08:59.881Z,1.80
2022-08-30T20:11:28.460Z,1.65
2022-08-30T20:13:55.628Z,1.63
2022-08-30T20:16:33.096Z,1.80
2022-08-30T20:19:04.338Z,1.60
2022-08-30T20:21:32.855Z,1.80
2022-08-30T20:24:00.892Z,2.10
2022-08-30T20:24:26.737Z,2.17
2022-08-30T20:26:33.962Z,2.13
2022-08-30T20:29:03.756Z,1.92
2022-08-30T20:31:30.504Z,1.58
2022-08-30T20:33:57.736Z,2.10
2022-08-30T20:36:24.393Z,1.88
2022-08-30T20:38:51.202Z,1.90
2022-08-30T20:41:19.859Z,2.03
2022-08-30T20:43:48.688Z,2.13
2022-08-30T20:46:20.683Z,1.90
2022-08-30T20:48:47.947Z,2.20
2022-08-30T20:51:19.170Z,1.80
2022-08-30T20:53:46.473Z,2.13
2022-08-30T20:56:27.726Z,1.90
2022-08-30T20:58:54.366Z,2.08
2022-08-30T21:01:23.569Z,2.65
2022-08-30T21:03:50.609Z,2.35
2022-08-30T21:06:17.549Z,2.13
2022-08-30T21:08:44.477Z,1.73
2022-08-30T21:11:11.343Z,1.85
2022-08-30T21:13:38.679Z,1.80
2022-08-30T21:16:06.819Z,1.92
2022-08-30T21:18:36.758Z,2.10
2022-08-30T21:21:21.278Z,2.67
2022-08-30T21:23:49.796Z,1.90
2022-08-30T21:26:17.909Z,2.38
2022-08-30T21:28:50.265Z,2.30
2022-08-30T21:31:24.402Z,2.28
2022-08-30T21:33:54.400Z,2.90
2022-08-30T21:36:43.567Z,2.47
2022-08-30T21:39:11.725Z,3.05
2022-08-30T21:41:39.398Z,2.10
2022-08-30T21:44:16.966Z,2.45
2022-08-30T21:46:44.604Z,3.28
2022-08-30T21:49:15.673Z,2.75
2022-08-30T21:51:46.053Z,2.80
2022-08-30T21:54:15.182Z,2.65
2022-08-30T21:56:46.090Z,2.70
2022-08-30T21:59:13.860Z,2.60
2022-08-30T22:01:43.200Z,2.70
2022-08-30T22:04:12.860Z,1.98
2022-08-30T22:06:43.745Z,2.60
2022-08-30T22:09:14.354Z,2.50
2022-08-30T22:11:43.767Z,2.35
2022-08-30T22:14:12.317Z,2.20
2022-08-30T22:16:40.449Z,2.10
2022-08-30T22:19:07.684Z,2.53
2022-08-30T22:21:36.767Z,2.70
2022-08-30T22:24:05.469Z,3.20
2022-08-30T22:26:33.841Z,2.80
2022-08-30T22:29:01.583Z,3.17
2022-08-30T22:31:28.648Z,3.53
2022-08-30T22:33:55.714Z,3.03
2022-08-30T22:36:35.827Z,3.35
2022-08-30T22:39:06.419Z,2.90
2022-08-30T22:41:36.659Z,3.00
2022-08-30T22:44:04.306Z,2.80
2022-08-30T22:46:34.400Z,3.10
2022-08-30T22:49:02.350Z,3.05
2022-08-30T22:51:29.314Z,3.03
2022-08-30T22:53:56.210Z,2.88
2022-08-30T22:56:25.686Z,3.17
2022-08-30T22:58:53.145Z,2.88
2022-08-30T23:01:23.364Z,3.58
2022-08-30T23:03:52.437Z,3.42
2022-08-30T23:06:19.486Z,4.30
2022-08-30T23:08:46.915Z,4.28
2022-08-30T23:11:14.149Z,4.30
2022-08-30T23:13:41.648Z,3.22
2022-08-30T23:16:09.333Z,4.03
2022-08-30T23:18:39.840Z,3.00
2022-08-30T23:21:20.243Z,3.80
2022-08-30T23:24:06.745Z,3.65
2022-08-30T23:26:52.698Z,4.00
2022-08-30T23:29:38.679Z,3.15
2022-08-30T23:32:24.475Z,3.35
2022-08-30T23:35:09.967Z,4.00
2022-08-30T23:37:55.442Z,3.97
2022-08-30T23:40:42.511Z,4.20
2022-08-30T23:43:29.817Z,4.65
2022-08-30T23:46:19.149Z,4.35
2022-08-30T23:49:06.861Z,4.07
2022-08-30T23:51:55.814Z,4.47
2022-08-30T23:54:42.895Z,4.60
2022-08-30T23:57:28.478Z,4.00
